Terminal Aerodrome Forecast
Issued by NWS Flagstaff, AZ

Home | Current Version | Previous Version | Text Only | Print | Product List | Glossary On
Versions: 1 2 3 4 5 6 7 8 9 10 11 12 13 14 15 16 17 18 19 20 21 22 23 24 25 26 27
000
FTUS45 KFGZ 051725
TAFINW
TAF
KINW 051725Z 0518/0618 28011KT P6SM VCSH SCT035 BKN045
      TEMPO 0518/0521 5SM -SHRA BR SCT028 OVC035
     FM052100 29010KT P6SM SCT035 BKN045
      TEMPO 0521/0601 5SM -TSRA BKN035CB
     FM060300 24010KT P6SM SCT024 BKN050=

USA.gov is the U.S. government's official web portal to all federal, state and local government web resources and services.